createdAt,value
2023-05-17T00:00:25.759Z,3.92
2023-05-17T00:02:54.656Z,2.92
2023-05-17T00:05:22.330Z,3.80
2023-05-17T00:07:50.134Z,3.20
2023-05-17T00:10:17.756Z,3.55
2023-05-17T00:12:45.273Z,2.92
2023-05-17T00:15:14.740Z,3.33
2023-05-17T00:17:42.437Z,3.67
2023-05-17T00:20:12.091Z,3.40
2023-05-17T00:22:41.058Z,3.25
2023-05-17T00:25:09.447Z,3.22
2023-05-17T00:27:37.111Z,3.22
2023-05-17T00:30:04.947Z,3.05
2023-05-17T00:32:32.784Z,3.63
2023-05-17T00:35:00.604Z,3.13
2023-05-17T00:37:29.707Z,2.88
2023-05-17T00:39:57.470Z,3.63
2023-05-17T00:42:25.150Z,3.03
2023-05-17T00:44:52.758Z,3.03
2023-05-17T00:47:20.364Z,3.17
2023-05-17T00:49:47.936Z,2.88
2023-05-17T00:52:15.581Z,3.08
2023-05-17T00:54:44.702Z,3.47
2023-05-17T00:57:12.274Z,3.53
2023-05-17T00:59:40.671Z,3.10
2023-05-17T01:02:08.387Z,3.28
2023-05-17T01:04:36.114Z,2.92
2023-05-17T01:07:04.248Z,3.35
2023-05-17T01:09:31.999Z,3.42
2023-05-17T01:12:05.920Z,3.35
2023-05-17T01:14:38.814Z,3.00
2023-05-17T01:17:07.822Z,3.42
2023-05-17T01:19:46.401Z,3.05
2023-05-17T01:22:18.746Z,3.70
2023-05-17T01:24:51.584Z,3.13
2023-05-17T01:27:24.316Z,3.28
2023-05-17T01:29:52.194Z,3.28
2023-05-17T01:32:20.725Z,3.60
2023-05-17T01:34:48.538Z,4.00
2023-05-17T01:37:16.548Z,3.17
2023-05-17T01:39:44.334Z,3.55
2023-05-17T01:42:15.071Z,3.10
2023-05-17T01:44:46.800Z,3.03
2023-05-17T01:47:16.781Z,2.83
2023-05-17T01:49:47.992Z,3.13
2023-05-17T01:52:18.266Z,2.95
2023-05-17T01:54:48.545Z,3.30
2023-05-17T01:57:16.392Z,3.25
2023-05-17T01:59:46.504Z,3.30
2023-05-17T02:02:14.208Z,3.67
2023-05-17T02:04:41.940Z,3.03
2023-05-17T02:07:09.685Z,3.50
2023-05-17T02:09:37.237Z,3.95
2023-05-17T02:12:04.901Z,4.43
2023-05-17T02:14:32.562Z,4.15
2023-05-17T02:17:05.787Z,3.47
2023-05-17T02:19:33.595Z,3.55
2023-05-17T02:22:01.243Z,3.53
2023-05-17T02:24:28.776Z,3.55
2023-05-17T02:26:56.305Z,3.35
2023-05-17T02:29:24.107Z,3.70
2023-05-17T02:31:51.694Z,4.13
2023-05-17T02:34:20.652Z,4.13
2023-05-17T02:36:48.505Z,4.47
2023-05-17T02:39:15.987Z,3.80
2023-05-17T02:41:43.627Z,3.28
2023-05-17T02:44:11.133Z,3.42
2023-05-17T02:46:38.751Z,3.78
2023-05-17T02:49:06.321Z,5.00
2023-05-17T02:51:35.173Z,3.20
2023-05-17T02:54:02.855Z,3.97
2023-05-17T02:56:31.012Z,3.20
2023-05-17T02:59:01.221Z,3.38
2023-05-17T03:01:28.851Z,4.18
2023-05-17T03:03:56.503Z,3.67
2023-05-17T03:06:24.175Z,3.85
2023-05-17T03:08:53.344Z,3.80
2023-05-17T03:11:20.993Z,3.05
2023-05-17T03:13:51.537Z,3.22
2023-05-17T03:16:19.173Z,3.30
2023-05-17T03:18:46.870Z,3.20
2023-05-17T03:21:14.614Z,3.50
2023-05-17T03:23:42.177Z,3.70
2023-05-17T03:26:11.120Z,3.85
2023-05-17T03:28:38.622Z,3.20
2023-05-17T03:31:06.504Z,3.88
2023-05-17T03:33:34.284Z,3.47
2023-05-17T03:36:01.992Z,3.45
2023-05-17T03:38:29.610Z,4.38
2023-05-17T03:40:57.391Z,3.47
2023-05-17T03:43:26.397Z,3.00
2023-05-17T03:45:54.001Z,2.83
2023-05-17T03:48:21.620Z,3.80
2023-05-17T03:50:49.198Z,3.38
2023-05-17T03:53:16.745Z,3.30
2023-05-17T03:55:44.591Z,2.97
2023-05-17T03:58:12.124Z,2.97
2023-05-17T04:00:41.103Z,3.35
2023-05-17T04:03:08.720Z,3.63
2023-05-17T04:05:36.367Z,3.75
2023-05-17T04:08:03.986Z,3.13
2023-05-17T04:10:31.905Z,3.10
2023-05-17T04:12:59.490Z,3.42
2023-05-17T04:15:27.149Z,3.15
2023-05-17T04:17:56.378Z,3.47
2023-05-17T04:20:24.102Z,3.55
2023-05-17T04:22:51.607Z,3.00
2023-05-17T04:25:19.451Z,3.15
2023-05-17T04:27:47.572Z,3.40
2023-05-17T04:30:15.358Z,2.90
2023-05-17T04:32:44.061Z,3.22
2023-05-17T04:35:13.094Z,3.92
2023-05-17T04:37:40.714Z,3.17
2023-05-17T04:40:09.295Z,3.55
2023-05-17T04:42:37.115Z,3.42
2023-05-17T04:45:05.288Z,2.83
2023-05-17T04:47:32.925Z,3.55
2023-05-17T04:50:00.590Z,3.60
2023-05-17T04:52:29.600Z,4.10
2023-05-17T04:54:57.301Z,3.47
2023-05-17T04:57:24.992Z,3.80
2023-05-17T04:59:52.657Z,3.17
2023-05-17T05:02:20.297Z,3.42
2023-05-17T05:04:48.525Z,3.53
2023-05-17T05:07:16.201Z,3.33
2023-05-17T05:09:45.156Z,3.58
2023-05-17T05:12:14.308Z,3.95
2023-05-17T05:14:41.880Z,3.72
2023-05-17T05:17:09.697Z,4.15
2023-05-17T05:19:37.403Z,3.58
2023-05-17T05:22:05.235Z,3.55
2023-05-17T05:24:32.889Z,3.40
2023-05-17T05:27:06.853Z,3.75
2023-05-17T05:32:02.302Z,4.10
2023-05-17T05:34:31.689Z,3.78
2023-05-17T05:36:59.330Z,3.40
2023-05-17T05:39:27.910Z,3.83
2023-05-17T05:41:55.543Z,3.38
2023-05-17T05:44:25.901Z,3.85
2023-05-17T05:46:53.679Z,4.25
2023-05-17T05:49:21.256Z,3.78
2023-05-17T05:51:48.889Z,4.18
2023-05-17T05:54:17.319Z,3.78
2023-05-17T05:56:44.832Z,5.90
2023-05-17T05:59:12.578Z,3.78
2023-05-17T06:01:41.572Z,3.85
2023-05-17T06:04:09.155Z,3.35
2023-05-17T06:06:37.202Z,4.25
2023-05-17T06:09:07.067Z,3.67
2023-05-17T06:11:34.663Z,4.10
2023-05-17T06:14:02.365Z,3.60
2023-05-17T06:16:29.894Z,3.53
2023-05-17T06:18:58.849Z,3.92
2023-05-17T06:21:26.525Z,3.45
2023-05-17T06:23:54.019Z,3.92
2023-05-17T06:26:21.563Z,3.38
2023-05-17T06:28:49.110Z,4.47
2023-05-17T06:31:17.739Z,3.75
2023-05-17T06:33:46.139Z,3.47
2023-05-17T06:36:15.278Z,3.45
2023-05-17T06:38:42.799Z,3.45
2023-05-17T06:41:10.481Z,3.25
2023-05-17T06:43:38.453Z,4.20
2023-05-17T06:46:06.045Z,3.38
2023-05-17T06:48:34.119Z,3.80
2023-05-17T06:51:01.843Z,3.60
2023-05-17T06:53:31.149Z,4.22
2023-05-17T06:55:58.632Z,3.88
2023-05-17T06:58:26.755Z,3.13
2023-05-17T07:00:54.413Z,3.00
2023-05-17T07:03:22.151Z,3.40
2023-05-17T07:05:50.336Z,3.03
2023-05-17T07:08:19.167Z,3.78
2023-05-17T07:10:48.099Z,3.13
2023-05-17T07:13:15.924Z,3.70
2023-05-17T07:15:43.434Z,3.65
2023-05-17T07:18:11.024Z,3.40
2023-05-17T07:20:38.640Z,3.90
2023-05-17T07:23:06.176Z,4.85
2023-05-17T07:25:33.911Z,4.05
2023-05-17T07:28:02.821Z,3.50
2023-05-17T07:30:30.354Z,2.95
2023-05-17T07:32:58.143Z,3.53
2023-05-17T07:35:25.749Z,2.90
2023-05-17T07:37:53.507Z,3.25
2023-05-17T07:40:22.040Z,3.47
2023-05-17T07:42:50.299Z,3.45
2023-05-17T07:45:19.652Z,4.00
2023-05-17T07:47:47.314Z,3.40
2023-05-17T07:50:15.226Z,3.55
2023-05-17T07:52:42.751Z,4.75
2023-05-17T07:55:11.017Z,3.53
2023-05-17T07:57:38.637Z,3.35
2023-05-17T08:00:08.890Z,3.60
2023-05-17T08:02:38.066Z,4.00
2023-05-17T08:05:05.876Z,3.08
2023-05-17T08:07:33.418Z,3.88
2023-05-17T08:10:04.538Z,5.40
2023-05-17T08:12:32.225Z,2.67
2023-05-17T08:14:59.981Z,2.95
2023-05-17T08:17:27.494Z,3.47
2023-05-17T08:19:56.804Z,3.40
2023-05-17T08:22:24.399Z,2.85
2023-05-17T08:24:51.884Z,2.58
2023-05-17T08:27:19.444Z,2.88
2023-05-17T08:29:47.073Z,2.88
2023-05-17T08:32:15.502Z,2.60
2023-05-17T08:34:44.777Z,3.03
2023-05-17T08:37:14.636Z,2.70
2023-05-17T08:39:42.602Z,2.80
2023-05-17T08:42:10.564Z,2.40
2023-05-17T08:44:38.840Z,2.45
2023-05-17T08:47:07.553Z,2.67
2023-05-17T08:49:38.382Z,2.67
2023-05-17T08:52:10.014Z,2.70
2023-05-17T08:54:42.893Z,2.75
2023-05-17T08:57:11.785Z,2.70
2023-05-17T08:59:40.202Z,3.00
2023-05-17T09:02:07.882Z,2.85
2023-05-17T09:04:35.484Z,2.83
2023-05-17T09:07:03.073Z,2.67
2023-05-17T09:09:30.771Z,2.97
2023-05-17T09:11:59.710Z,2.97
2023-05-17T09:14:33.468Z,2.95
2023-05-17T09:17:01.777Z,2.30
2023-05-17T09:19:29.317Z,2.60
2023-05-17T09:21:57.974Z,2.53
2023-05-17T09:24:29.258Z,2.40
2023-05-17T09:27:02.536Z,2.40
2023-05-17T09:29:32.391Z,3.43
2023-05-17T09:32:12.806Z,3.45
2023-05-17T09:34:41.107Z,3.13
2023-05-17T09:37:13.362Z,3.03
2023-05-17T09:39:41.509Z,2.22
2023-05-17T09:42:12.388Z,2.40
2023-05-17T09:44:49.884Z,2.80
2023-05-17T09:47:24.851Z,3.33
2023-05-17T09:49:52.626Z,2.20
2023-05-17T09:52:25.037Z,3.05
2023-05-17T09:54:53.706Z,2.67
2023-05-17T09:57:25.183Z,2.20
2023-05-17T09:59:56.014Z,2.20
2023-05-17T10:02:24.295Z,1.77
2023-05-17T10:04:53.939Z,2.58
2023-05-17T10:07:21.941Z,1.80
2023-05-17T10:09:50.746Z,1.70
2023-05-17T10:12:19.261Z,1.50
2023-05-17T10:14:48.416Z,1.60
2023-05-17T10:17:16.591Z,1.98
2023-05-17T10:19:44.674Z,1.90
2023-05-17T10:24:47.383Z,1.80
2023-05-17T10:27:15.531Z,1.70
2023-05-17T10:29:43.359Z,1.70
2023-05-17T10:32:14.581Z,1.85
2023-05-17T10:34:42.320Z,1.80
2023-05-17T10:37:10.732Z,2.33
2023-05-17T10:39:39.041Z,1.80
2023-05-17T10:42:14.923Z,2.05
2023-05-17T10:44:43.884Z,2.00
2023-05-17T10:47:12.852Z,1.60
2023-05-17T10:49:41.664Z,2.22
2023-05-17T10:52:12.955Z,1.63
2023-05-17T10:54:41.941Z,1.70
2023-05-17T10:57:09.935Z,1.90
2023-05-17T10:59:38.045Z,2.28
2023-05-17T11:02:06.692Z,2.28
2023-05-17T11:04:37.752Z,1.77
2023-05-17T11:07:22.334Z,1.63
2023-05-17T11:10:09.206Z,2.10
2023-05-17T11:12:39.436Z,1.70
2023-05-17T11:15:08.852Z,1.80
2023-05-17T11:17:37.560Z,1.52
2023-05-17T11:20:12.414Z,1.83
2023-05-17T11:22:42.721Z,1.50
2023-05-17T11:25:11.515Z,1.70
2023-05-17T11:27:40.744Z,1.13
2023-05-17T11:30:18.345Z,1.70
2023-05-17T11:32:50.506Z,1.50
2023-05-17T11:35:20.285Z,1.45
2023-05-17T11:37:47.864Z,1.67
2023-05-17T11:40:16.061Z,1.40
2023-05-17T11:42:45.251Z,1.60
2023-05-17T11:45:13.564Z,1.40
2023-05-17T11:47:42.661Z,1.20
2023-05-17T11:50:11.058Z,1.30
2023-05-17T11:52:44.178Z,1.30
2023-05-17T11:55:15.444Z,1.55
2023-05-17T11:57:44.142Z,1.42
2023-05-17T12:00:12.435Z,1.15
2023-05-17T12:02:42.841Z,5.32
2023-05-17T12:05:10.438Z,1.73
2023-05-17T12:07:38.452Z,1.85
2023-05-17T12:10:07.963Z,2.00
2023-05-17T12:12:35.458Z,1.80
2023-05-17T12:15:03.200Z,2.97
2023-05-17T12:17:36.136Z,1.67
2023-05-17T12:20:10.288Z,1.73
2023-05-17T12:22:52.356Z,3.17
2023-05-17T12:25:25.299Z,1.83
2023-05-17T12:27:53.093Z,2.03
2023-05-17T12:30:20.638Z,2.42
2023-05-17T12:32:48.466Z,2.90
2023-05-17T12:35:16.098Z,2.65
2023-05-17T12:37:46.377Z,1.92
2023-05-17T12:40:14.104Z,2.50
2023-05-17T12:42:43.912Z,2.38
2023-05-17T12:45:14.145Z,2.17
2023-05-17T12:47:42.000Z,2.30
2023-05-17T12:50:10.127Z,2.40
2023-05-17T12:52:38.077Z,2.08
2023-05-17T12:55:05.935Z,2.33
2023-05-17T12:57:33.820Z,1.98
2023-05-17T13:00:08.691Z,2.03
2023-05-17T13:02:36.385Z,2.50
2023-05-17T13:05:14.844Z,2.38
2023-05-17T13:07:45.850Z,1.80
2023-05-17T13:10:23.391Z,2.15
2023-05-17T13:12:57.493Z,2.28
2023-05-17T13:15:33.153Z,2.28
2023-05-17T13:18:01.331Z,1.95
2023-05-17T13:20:29.271Z,1.88
2023-05-17T13:22:57.459Z,1.75
2023-05-17T13:25:25.115Z,1.70
2023-05-17T13:27:55.337Z,1.92
2023-05-17T13:30:27.673Z,1.80
2023-05-17T13:32:57.093Z,2.20
2023-05-17T13:35:24.852Z,2.40
2023-05-17T13:37:53.579Z,2.90
2023-05-17T13:40:21.180Z,2.50
2023-05-17T13:42:48.753Z,1.52
2023-05-17T13:45:24.319Z,1.55
2023-05-17T13:47:52.061Z,1.50
2023-05-17T13:50:26.208Z,1.30
2023-05-17T13:53:00.503Z,1.58
2023-05-17T13:55:31.156Z,1.65
2023-05-17T13:57:58.785Z,1.98
2023-05-17T14:00:27.074Z,2.00
2023-05-17T14:02:55.381Z,1.40
2023-05-17T14:05:24.966Z,1.70
2023-05-17T14:07:52.635Z,1.70
2023-05-17T14:10:20.343Z,1.60
2023-05-17T14:12:47.922Z,1.40
2023-05-17T14:15:15.976Z,1.40
2023-05-17T14:17:43.713Z,1.40
